Time;durP1;ratioP1;P1;durP2;ratioP2;P2;SDS_P1;SDS_P2;PMS_P1;PMS_P2;Temp;Humidity;BMP_temperature;BMP_pressure;BME280_temperature;BME280_humidity;BME280_pressure;Samples;Min_cycle;Max_cycle;Signal;HPM_P1;HPM_P2
2023/12/07 00:01:55;;;;;;;21.27;15.52;;;4.80;99.90;;;;;;5022813;28;20557;-36
2023/12/07 00:04:21;;;;;;;22.75;15.02;;;4.80;99.90;;;;;;5021869;28;20686;-36
2023/12/07 00:06:47;;;;;;;24.25;15.05;;;4.80;99.90;;;;;;5021761;28;20322;-38
2023/12/07 00:09:13;;;;;;;23.27;15.00;;;4.80;99.90;;;;;;5021707;28;20281;-38
2023/12/07 00:11:39;;;;;;;26.33;15.05;;;4.70;99.90;;;;;;5022514;28;20695;-36
2023/12/07 00:14:04;;;;;;;23.67;15.45;;;4.80;99.90;;;;;;5022767;28;20183;-37
2023/12/07 00:16:31;;;;;;;25.00;14.10;;;4.70;99.90;;;;;;5022866;28;20195;-37
2023/12/07 00:18:57;;;;;;;20.40;13.70;;;4.80;99.90;;;;;;5022663;28;20172;-36
2023/12/07 00:21:23;;;;;;;23.77;14.70;;;4.70;99.90;;;;;;5054734;28;20207;-37
2023/12/07 00:23:49;;;;;;;26.10;14.98;;;4.80;99.90;;;;;;5021594;28;20184;-37
2023/12/07 00:26:15;;;;;;;20.40;14.18;;;4.80;99.90;;;;;;5020211;28;20200;-36
2023/12/07 00:28:41;;;;;;;20.75;14.10;;;4.70;99.90;;;;;;5022225;28;20237;-36
2023/12/07 00:31:08;;;;;;;18.52;12.68;;;4.80;99.90;;;;;;5022416;28;20184;-36
2023/12/07 00:33:34;;;;;;;19.45;13.35;;;4.80;99.90;;;;;;4994902;28;20223;-35
2023/12/07 00:36:00;;;;;;;18.05;12.55;;;4.80;99.90;;;;;;5020973;28;20641;-37
2023/12/07 00:38:25;;;;;;;19.42;13.27;;;4.70;99.90;;;;;;5021632;28;20192;-37
2023/12/07 00:40:51;;;;;;;20.90;13.57;;;4.70;99.90;;;;;;5021628;28;20227;-37
2023/12/07 00:43:17;;;;;;;20.33;13.18;;;4.70;99.90;;;;;;5022011;28;20198;-35
2023/12/07 00:45:43;;;;;;;19.20;13.63;;;4.70;99.90;;;;;;5021677;28;21531;-37
2023/12/07 00:48:09;;;;;;;20.17;12.65;;;4.70;99.90;;;;;;5021542;28;20188;-36
2023/12/07 00:50:35;;;;;;;18.38;12.77;;;4.70;99.90;;;;;;5021763;28;20184;-36
2023/12/07 00:53:01;;;;;;;18.92;13.25;;;4.60;99.90;;;;;;5028636;28;20192;-34
2023/12/07 00:55:26;;;;;;;20.55;14.10;;;4.70;99.90;;;;;;5021447;28;20180;-35
2023/12/07 00:57:52;;;;;;;18.00;13.60;;;4.70;99.90;;;;;;5021462;28;20190;-37
2023/12/07 01:00:18;;;;;;;18.38;13.38;;;4.70;99.90;;;;;;5020842;28;20867;-37
2023/12/07 01:02:44;;;;;;;19.80;12.88;;;4.60;99.90;;;;;;5021598;28;20658;-38
2023/12/07 01:05:10;;;;;;;18.35;13.43;;;4.60;99.90;;;;;;5021565;28;20183;-35
2023/12/07 01:07:36;;;;;;;19.98;14.23;;;4.60;99.90;;;;;;5021427;28;20678;-39
2023/12/07 01:10:02;;;;;;;18.63;13.25;;;4.70;99.90;;;;;;5021804;28;20695;-36
2023/12/07 01:12:28;;;;;;;17.55;13.02;;;4.70;99.90;;;;;;5023035;28;20299;-36
2023/12/07 01:14:54;;;;;;;18.10;13.70;;;4.70;99.90;;;;;;5021739;28;20195;-37
2023/12/07 01:17:20;;;;;;;21.88;14.57;;;4.60;99.90;;;;;;5021162;28;20192;-35
2023/12/07 01:19:46;;;;;;;21.95;14.23;;;4.70;99.90;;;;;;5021472;28;20195;-36
2023/12/07 01:22:12;;;;;;;19.73;13.63;;;4.70;99.90;;;;;;5021836;28;20188;-36
2023/12/07 01:24:37;;;;;;;22.42;13.63;;;4.70;99.90;;;;;;5021130;28;20302;-36
2023/12/07 01:27:03;;;;;;;21.73;13.25;;;4.70;99.90;;;;;;5021484;28;20409;-38
2023/12/07 01:29:29;;;;;;;17.77;12.35;;;4.70;99.90;;;;;;5019538;28;20216;-36
2023/12/07 01:31:55;;;;;;;16.90;12.65;;;4.70;99.90;;;;;;5020540;28;20196;-35
2023/12/07 01:34:21;;;;;;;19.63;12.98;;;4.70;99.90;;;;;;5020767;28;20206;-38
2023/12/07 01:36:47;;;;;;;19.02;12.52;;;4.70;99.90;;;;;;5021828;28;20219;-34
2023/12/07 01:39:13;;;;;;;18.92;13.00;;;4.70;99.90;;;;;;5021235;28;21089;-39
2023/12/07 01:41:40;;;;;;;17.40;12.30;;;4.70;99.90;;;;;;5019171;28;20192;-36
2023/12/07 01:44:05;;;;;;;20.20;13.73;;;4.70;99.90;;;;;;5036966;28;20225;-38
2023/12/07 01:46:33;;;;;;;20.90;13.63;;;4.70;99.90;;;;;;5021840;28;20187;-35
2023/12/07 01:49:00;;;;;;;19.77;14.18;;;4.70;99.90;;;;;;4983821;28;20211;-36
2023/12/07 01:51:26;;;;;;;19.63;12.55;;;4.60;99.90;;;;;;5020191;28;20203;-36
2023/12/07 01:53:54;;;;;;;19.48;13.07;;;4.60;99.90;;;;;;5021346;28;20195;-39
2023/12/07 01:56:21;;;;;;;17.95;13.13;;;4.60;99.90;;;;;;5003223;28;20954;-37
2023/12/07 01:58:47;;;;;;;17.98;12.50;;;4.60;99.90;;;;;;5019228;28;20191;-38
2023/12/07 02:01:13;;;;;;;20.63;12.32;;;4.50;99.90;;;;;;5020824;28;20676;-35
2023/12/07 02:03:42;;;;;;;21.77;12.45;;;4.50;99.90;;;;;;5021244;28;20188;-37
2023/12/07 02:06:10;;;;;;;15.25;11.50;;;4.50;99.90;;;;;;5053299;28;20340;-36
2023/12/07 02:08:41;;;;;;;16.08;11.68;;;4.50;99.90;;;;;;5019249;28;20293;-37
2023/12/07 02:11:09;;;;;;;15.60;12.05;;;4.50;99.90;;;;;;5021149;28;20192;-36
2023/12/07 02:13:40;;;;;;;19.40;11.95;;;4.50;99.90;;;;;;5019961;28;20219;-38
2023/12/07 02:16:21;;;;;;;18.05;13.18;;;4.40;99.90;;;;;;5023714;28;20351;-38
2023/12/07 02:18:56;;;;;;;21.83;12.57;;;4.40;99.90;;;;;;5023944;28;20249;-36
2023/12/07 02:21:33;;;;;;;19.17;12.55;;;4.40;99.90;;;;;;5024189;28;20183;-36
2023/12/07 02:23:59;;;;;;;18.73;12.25;;;4.50;99.90;;;;;;5024783;28;20194;-35
2023/12/07 02:26:37;;;;;;;19.58;11.90;;;4.40;99.90;;;;;;5025114;28;20175;-35
2023/12/07 02:29:03;;;;;;;18.73;12.00;;;4.40;99.90;;;;;;5024134;28;20305;-37
2023/12/07 02:31:29;;;;;;;16.83;12.02;;;4.40;99.90;;;;;;5024061;28;20347;-37
2023/12/07 02:33:55;;;;;;;15.15;12.05;;;4.40;99.90;;;;;;5025131;28;20183;-36
2023/12/07 02:36:24;;;;;;;20.08;11.98;;;4.40;99.90;;;;;;5025101;28;20233;-36
2023/12/07 02:38:53;;;;;;;20.95;12.05;;;4.40;99.90;;;;;;5024222;28;20187;-38
2023/12/07 02:41:20;;;;;;;21.05;13.57;;;4.40;99.90;;;;;;5022935;28;20428;-35
2023/12/07 02:43:46;;;;;;;16.30;11.30;;;4.50;99.90;;;;;;5023856;28;20195;-36
2023/12/07 02:46:12;;;;;;;18.63;12.07;;;4.50;99.90;;;;;;5056277;28;20659;-37
2023/12/07 02:48:38;;;;;;;18.95;12.57;;;4.50;99.90;;;;;;5024137;28;20683;-38
2023/12/07 02:51:04;;;;;;;16.60;11.82;;;4.50;99.90;;;;;;5023654;28;20195;-35
2023/12/07 02:53:30;;;;;;;14.32;10.55;;;4.50;99.90;;;;;;5055916;28;20211;-36
2023/12/07 02:55:56;;;;;;;17.98;10.68;;;4.50;99.90;;;;;;5056198;28;20246;-35
2023/12/07 02:58:22;;;;;;;14.77;10.98;;;4.50;99.90;;;;;;5024045;28;20745;-37
2023/12/07 03:00:48;;;;;;;17.10;11.00;;;4.50;99.90;;;;;;5023402;28;20192;-36
2023/12/07 03:03:14;;;;;;;16.48;11.18;;;4.50;99.90;;;;;;5022911;28;20271;-37
2023/12/07 03:05:39;;;;;;;18.80;11.13;;;4.60;99.90;;;;;;5022991;28;20983;-36
2023/12/07 03:08:05;;;;;;;17.13;12.13;;;4.60;99.90;;;;;;5023483;28;20678;-36
2023/12/07 03:10:31;;;;;;;17.08;11.50;;;4.60;99.90;;;;;;5055048;28;20774;-36
2023/12/07 03:12:57;;;;;;;18.45;10.85;;;4.60;99.90;;;;;;5011632;28;20271;-36
2023/12/07 03:15:23;;;;;;;17.13;10.57;;;4.60;99.90;;;;;;5023249;28;20613;-36
2023/12/07 03:17:50;;;;;;;15.55;11.20;;;4.60;99.90;;;;;;5022399;28;20183;-36
2023/12/07 03:20:16;;;;;;;15.57;10.95;;;4.60;99.90;;;;;;5023993;28;20250;-36
2023/12/07 03:22:42;;;;;;;15.90;10.77;;;4.60;99.90;;;;;;5022939;28;20184;-38
2023/12/07 03:25:08;;;;;;;16.15;10.80;;;4.60;99.90;;;;;;5022229;28;20695;-37
2023/12/07 03:27:34;;;;;;;15.43;10.90;;;4.60;99.90;;;;;;5037617;28;20691;-39
2023/12/07 03:30:00;;;;;;;16.50;10.77;;;4.60;99.90;;;;;;5023668;28;20307;-36
2023/12/07 03:32:26;;;;;;;14.32;10.15;;;4.60;99.90;;;;;;5023064;28;20302;-36
2023/12/07 03:34:52;;;;;;;15.43;10.68;;;4.60;99.90;;;;;;5054965;28;20232;-38
2023/12/07 03:37:17;;;;;;;14.18;10.57;;;4.60;99.90;;;;;;5022964;28;20179;-37
2023/12/07 03:39:43;;;;;;;15.98;11.23;;;4.60;99.90;;;;;;5055443;28;20195;-39
2023/12/07 03:42:09;;;;;;;15.50;11.50;;;4.60;99.90;;;;;;5023520;28;20652;-37
2023/12/07 03:44:35;;;;;;;17.60;11.27;;;4.60;99.90;;;;;;5021997;28;20200;-37
2023/12/07 03:47:01;;;;;;;21.65;11.02;;;4.60;99.90;;;;;;5022300;28;20192;-36
2023/12/07 03:49:27;;;;;;;13.95;10.23;;;4.60;99.90;;;;;;5022692;28;20207;-35
2023/12/07 03:51:53;;;;;;;16.05;10.95;;;4.60;99.90;;;;;;5023740;28;20719;-36
2023/12/07 03:54:19;;;;;;;17.88;10.93;;;4.60;99.90;;;;;;5023047;28;20965;-35
2023/12/07 03:56:45;;;;;;;14.90;10.55;;;4.60;99.90;;;;;;5022848;28;20751;-36
2023/12/07 03:59:11;;;;;;;16.52;11.20;;;4.60;99.90;;;;;;5022713;28;20196;-36
2023/12/07 04:01:37;;;;;;;19.77;10.68;;;4.60;99.90;;;;;;5022904;28;20219;-36
2023/12/07 04:04:04;;;;;;;12.50;10.30;;;4.70;99.90;;;;;;5022774;28;20235;-36
2023/12/07 04:06:30;;;;;;;17.20;10.50;;;4.60;99.90;;;;;;5022935;28;20239;-37
2023/12/07 04:08:56;;;;;;;12.85;10.13;;;4.70;99.90;;;;;;5022064;28;20207;-35
2023/12/07 04:11:22;;;;;;;16.55;10.10;;;4.70;99.90;;;;;;5023145;28;20271;-38
2023/12/07 04:13:48;;;;;;;16.73;10.32;;;4.60;99.90;;;;;;5022399;28;20196;-36
2023/12/07 04:16:14;;;;;;;15.02;9.80;;;4.70;99.90;;;;;;5023005;28;20678;-35
2023/12/07 04:18:40;;;;;;;15.60;9.85;;;4.60;99.90;;;;;;5021701;28;20207;-34
2023/12/07 04:21:06;;;;;;;13.75;8.55;;;4.60;99.90;;;;;;5022485;28;20208;-38
2023/12/07 04:23:33;;;;;;;13.07;9.07;;;4.50;99.90;;;;;;5022020;28;20188;-38
2023/12/07 04:25:59;;;;;;;13.88;9.65;;;4.50;99.90;;;;;;5022306;28;20271;-36
2023/12/07 04:28:25;;;;;;;13.73;9.27;;;4.60;99.90;;;;;;5021872;28;21858;-35
2023/12/07 04:30:51;;;;;;;16.67;9.10;;;4.50;99.90;;;;;;5020811;28;20214;-36
2023/12/07 04:33:17;;;;;;;15.77;9.40;;;4.50;99.90;;;;;;5021992;28;20665;-37
2023/12/07 04:35:43;;;;;;;13.07;8.48;;;4.50;99.90;;;;;;5022676;28;20207;-37
2023/12/07 04:38:08;;;;;;;11.60;8.70;;;4.50;99.90;;;;;;5021130;28;21820;-36
2023/12/07 04:40:34;;;;;;;15.75;8.60;;;4.50;99.90;;;;;;5022181;28;20223;-37
2023/12/07 04:43:00;;;;;;;13.98;8.77;;;4.50;99.90;;;;;;5022743;28;20533;-37
2023/12/07 04:45:26;;;;;;;13.15;8.68;;;4.50;99.90;;;;;;5022009;28;20192;-34
2023/12/07 04:47:52;;;;;;;13.77;8.75;;;4.50;99.90;;;;;;5022381;28;20183;-36
2023/12/07 04:50:18;;;;;;;11.77;8.23;;;4.50;99.90;;;;;;5022409;28;20249;-42
2023/12/07 04:52:44;;;;;;;13.82;8.45;;;4.50;99.90;;;;;;5022381;28;20191;-38
2023/12/07 04:55:10;;;;;;;12.63;9.15;;;4.40;99.90;;;;;;5020518;28;21554;-38
2023/12/07 04:57:36;;;;;;;14.85;9.00;;;4.40;99.90;;;;;;5021329;28;20196;-36
2023/12/07 05:00:09;;;;;;;14.73;8.75;;;4.40;99.90;;;;;;5021915;28;20192;-37
2023/12/07 05:02:36;;;;;;;12.70;8.77;;;4.40;99.90;;;;;;5020642;28;20187;-37
2023/12/07 05:05:02;;;;;;;11.95;8.65;;;4.40;99.90;;;;;;5021783;28;20192;-35
2023/12/07 05:07:28;;;;;;;14.73;9.07;;;4.40;99.90;;;;;;5020118;28;20264;-36
2023/12/07 05:09:54;;;;;;;16.00;9.20;;;4.30;99.90;;;;;;5021638;28;20382;-37
2023/12/07 05:12:20;;;;;;;14.10;9.38;;;4.30;99.90;;;;;;5021206;28;20670;-37
2023/12/07 05:14:46;;;;;;;18.88;9.60;;;4.30;99.90;;;;;;5019017;28;20564;-37
2023/12/07 05:17:13;;;;;;;13.10;9.30;;;4.30;99.90;;;;;;5021270;28;20648;-36
2023/12/07 05:19:39;;;;;;;16.75;9.55;;;4.30;99.90;;;;;;5021292;28;20192;-37
2023/12/07 05:22:05;;;;;;;15.80;10.02;;;4.30;99.90;;;;;;5021516;28;20194;-36
2023/12/07 05:24:34;;;;;;;14.63;9.25;;;4.30;99.90;;;;;;5021701;28;20278;-39
2023/12/07 05:27:00;;;;;;;14.38;9.90;;;4.30;99.90;;;;;;5022130;28;20525;-34
2023/12/07 05:29:26;;;;;;;12.80;9.25;;;4.30;99.90;;;;;;5021489;28;20277;-36
2023/12/07 05:31:52;;;;;;;13.38;9.10;;;4.30;99.90;;;;;;5021940;28;20196;-37
2023/12/07 05:34:18;;;;;;;14.35;9.13;;;4.30;99.90;;;;;;5018603;28;20188;-36
2023/12/07 05:36:46;;;;;;;15.85;9.40;;;4.30;99.90;;;;;;5020164;28;20191;-35
2023/12/07 05:39:12;;;;;;;13.40;9.93;;;4.30;99.90;;;;;;5020992;28;20612;-34
2023/12/07 05:41:39;;;;;;;15.10;9.80;;;4.30;99.90;;;;;;5036230;28;20191;-37
2023/12/07 05:44:05;;;;;;;13.85;10.15;;;4.30;99.90;;;;;;5020767;28;20188;-37
2023/12/07 05:46:32;;;;;;;12.98;10.38;;;4.30;99.90;;;;;;5021297;28;20196;-36
2023/12/07 05:48:58;;;;;;;13.63;10.75;;;4.30;99.90;;;;;;5021225;28;20204;-35
2023/12/07 05:51:24;;;;;;;15.38;10.68;;;4.30;99.90;;;;;;5024667;28;20246;-36
2023/12/07 05:53:50;;;;;;;22.23;11.27;;;4.30;99.90;;;;;;5025242;28;20196;-37
2023/12/07 05:56:23;;;;;;;17.33;10.82;;;4.30;99.90;;;;;;5023781;28;20207;-35
2023/12/07 05:58:49;;;;;;;19.83;11.75;;;4.30;99.90;;;;;;5025100;28;20605;-37
2023/12/07 06:01:18;;;;;;;18.98;11.90;;;4.30;99.90;;;;;;5056886;28;20992;-37
2023/12/07 06:03:44;;;;;;;16.80;10.80;;;4.30;99.90;;;;;;5029393;28;21309;-37
2023/12/07 06:06:11;;;;;;;16.42;11.65;;;4.30;99.90;;;;;;5024832;28;20228;-39
2023/12/07 06:08:37;;;;;;;16.85;11.38;;;4.30;99.90;;;;;;5024919;28;20305;-37
2023/12/07 06:11:03;;;;;;;19.73;11.95;;;4.30;99.90;;;;;;5023946;28;20719;-36
2023/12/07 06:13:30;;;;;;;16.63;11.88;;;4.30;99.90;;;;;;5024241;28;20557;-36
2023/12/07 06:15:55;;;;;;;19.65;12.65;;;4.30;99.90;;;;;;5025297;28;20194;-38
2023/12/07 06:18:21;;;;;;;16.58;11.95;;;4.30;99.90;;;;;;5024468;28;20270;-38
2023/12/07 06:20:47;;;;;;;16.83;11.88;;;4.30;99.90;;;;;;5023511;28;20734;-35
2023/12/07 06:23:13;;;;;;;19.80;12.15;;;4.30;99.90;;;;;;5024391;28;20190;-39
2023/12/07 06:25:39;;;;;;;20.55;13.00;;;4.20;99.90;;;;;;5056440;28;20216;-37
2023/12/07 06:28:06;;;;;;;14.02;11.68;;;4.20;99.90;;;;;;5023532;28;20200;-39
2023/12/07 06:30:32;;;;;;;18.52;12.63;;;4.20;99.90;;;;;;5024072;28;20204;-39
2023/12/07 06:32:57;;;;;;;21.75;12.35;;;4.20;99.90;;;;;;5024113;28;20195;-38
2023/12/07 06:35:23;;;;;;;20.10;13.15;;;4.20;99.90;;;;;;5022873;28;20192;-38
2023/12/07 06:37:49;;;;;;;19.13;12.27;;;4.20;99.90;;;;;;5023721;28;20212;-36
2023/12/07 06:40:15;;;;;;;17.98;12.27;;;4.20;99.90;;;;;;5024049;28;20199;-36
2023/12/07 06:42:41;;;;;;;16.02;12.05;;;4.20;99.90;;;;;;5056405;28;20202;-38
2023/12/07 06:45:10;;;;;;;19.33;12.93;;;4.20;99.90;;;;;;5023266;28;20210;-35
2023/12/07 06:47:38;;;;;;;17.92;12.23;;;4.20;99.90;;;;;;5023569;28;20187;-38
2023/12/07 06:50:08;;;;;;;17.55;12.05;;;4.30;99.90;;;;;;5023403;28;20216;-36
2023/12/07 06:52:34;;;;;;;18.58;12.60;;;4.30;99.90;;;;;;5023816;28;20194;-35
2023/12/07 06:55:00;;;;;;;18.75;12.00;;;4.30;99.90;;;;;;5022743;28;20177;-37
2023/12/07 06:57:26;;;;;;;18.00;11.90;;;4.30;99.90;;;;;;5022702;28;20200;-36
2023/12/07 06:59:52;;;;;;;17.88;13.02;;;4.40;99.90;;;;;;5023687;28;20310;-36
2023/12/07 07:02:18;;;;;;;18.05;12.85;;;4.40;99.90;;;;;;5022700;28;20207;-36
2023/12/07 07:04:44;;;;;;;19.42;12.27;;;4.40;99.90;;;;;;5021048;28;20207;-37
2023/12/07 07:07:10;;;;;;;26.40;17.17;;;4.40;99.90;;;;;;5022717;28;20859;-37
2023/12/07 07:09:35;;;;;;;19.77;12.90;;;4.40;99.90;;;;;;5022978;28;20214;-36
2023/12/07 07:12:01;;;;;;;16.80;11.85;;;4.40;99.90;;;;;;5022805;28;21312;-38
2023/12/07 07:14:27;;;;;;;25.80;13.90;;;4.40;99.90;;;;;;5023553;28;20180;-35
2023/12/07 07:16:53;;;;;;;19.52;12.63;;;4.50;99.90;;;;;;5024277;28;20596;-36
2023/12/07 07:19:19;;;;;;;16.52;11.93;;;4.50;99.90;;;;;;4988755;28;20207;-35
2023/12/07 07:21:45;;;;;;;22.20;13.43;;;4.50;99.90;;;;;;5037327;28;20199;-36
2023/12/07 07:24:11;;;;;;;20.00;11.73;;;4.50;99.90;;;;;;5027857;28;20338;-35
2023/12/07 07:26:38;;;;;;;21.42;14.50;;;4.50;99.90;;;;;;5054535;28;20261;-36
2023/12/07 07:29:04;;;;;;;19.83;12.18;;;4.50;99.90;;;;;;5023122;28;20573;-38
2023/12/07 07:31:30;;;;;;;18.52;12.07;;;4.50;99.90;;;;;;5022555;28;20668;-36
2023/12/07 07:33:56;;;;;;;19.27;11.88;;;4.50;99.90;;;;;;5022362;28;20180;-37
2023/12/07 07:36:22;;;;;;;21.45;12.40;;;4.60;99.90;;;;;;5022177;28;20640;-36
2023/12/07 07:38:48;;;;;;;17.00;11.63;;;4.60;99.90;;;;;;5021886;28;20657;-36
2023/12/07 07:41:14;;;;;;;16.85;11.57;;;4.60;99.90;;;;;;5023474;28;20241;-35
2023/12/07 07:43:40;;;;;;;18.50;12.43;;;4.60;99.90;;;;;;5022904;28;20198;-38
2023/12/07 07:46:06;;;;;;;16.35;11.85;;;4.60;99.90;;;;;;5022372;28;20196;-35
2023/12/07 07:48:32;;;;;;;16.70;12.30;;;4.60;99.90;;;;;;5021844;28;20529;-36
2023/12/07 07:50:58;;;;;;;17.25;12.70;;;4.60;99.90;;;;;;5022517;28;20651;-35
2023/12/07 07:53:24;;;;;;;18.10;12.68;;;4.70;99.90;;;;;;5023368;28;20188;-36
2023/12/07 07:55:50;;;;;;;23.77;14.80;;;4.70;99.90;;;;;;5022221;28;20194;-38
2023/12/07 07:58:16;;;;;;;19.23;12.93;;;4.70;99.90;;;;;;5020476;28;20266;-35
2023/12/07 08:00:42;;;;;;;18.70;12.70;;;4.70;99.90;;;;;;5021847;28;20192;-35
2023/12/07 08:03:08;;;;;;;26.40;16.05;;;4.80;99.90;;;;;;5021077;28;20191;-37
2023/12/07 08:05:34;;;;;;;25.70;15.50;;;4.80;99.90;;;;;;5022256;28;20705;-39
2023/12/07 08:08:01;;;;;;;20.63;13.95;;;4.90;99.90;;;;;;5021587;28;20226;-35
2023/12/07 08:10:26;;;;;;;19.95;13.60;;;5.00;99.90;;;;;;5022551;28;20615;-38
2023/12/07 08:12:52;;;;;;;20.10;13.40;;;5.00;99.90;;;;;;5021197;28;20194;-38
2023/12/07 08:15:18;;;;;;;24.55;16.67;;;5.00;99.90;;;;;;5020673;28;20196;-38
2023/12/07 08:17:44;;;;;;;20.67;13.57;;;5.00;99.90;;;;;;5020878;28;20551;-37
2023/12/07 08:20:10;;;;;;;19.80;13.13;;;5.00;99.90;;;;;;5021607;28;20227;-35
2023/12/07 08:22:40;;;;;;;19.13;13.35;;;5.00;99.90;;;;;;5022536;28;20179;-35
2023/12/07 08:25:09;;;;;;;20.13;13.88;;;5.10;99.90;;;;;;5023073;28;20308;-35
2023/12/07 08:27:36;;;;;;;23.73;14.48;;;5.00;99.90;;;;;;5022263;28;20184;-35
2023/12/07 08:30:02;;;;;;;20.90;14.32;;;5.00;99.90;;;;;;5019842;28;20211;-37
2023/12/07 08:32:29;;;;;;;17.35;13.10;;;5.00;99.90;;;;;;5021605;28;20746;-37
2023/12/07 08:34:55;;;;;;;22.77;14.40;;;5.10;99.90;;;;;;5054667;28;20176;-37
2023/12/07 08:37:20;;;;;;;26.52;15.50;;;5.10;99.90;;;;;;5020639;28;20199;-37
2023/12/07 08:39:46;;;;;;;23.90;14.48;;;5.10;99.90;;;;;;5019535;28;20295;-37
2023/12/07 08:42:12;;;;;;;20.80;14.45;;;5.10;99.90;;;;;;5021403;28;20290;-36
2023/12/07 08:44:38;;;;;;;23.42;14.48;;;5.10;99.90;;;;;;5022085;28;20188;-37
2023/12/07 08:47:05;;;;;;;24.02;14.48;;;5.10;99.90;;;;;;5021612;28;20180;-36
2023/12/07 08:49:31;;;;;;;27.15;14.40;;;5.10;99.90;;;;;;5022447;28;20246;-37
2023/12/07 08:51:57;;;;;;;23.00;14.73;;;5.10;99.90;;;;;;5021876;28;20224;-37
2023/12/07 08:54:23;;;;;;;21.98;15.02;;;5.00;99.90;;;;;;5020534;28;20648;-35
2023/12/07 08:56:51;;;;;;;25.02;15.40;;;5.10;99.90;;;;;;5022567;28;20238;-37
2023/12/07 08:59:16;;;;;;;22.77;15.68;;;5.00;99.90;;;;;;5022009;28;20196;-39
2023/12/07 09:01:42;;;;;;;25.27;15.15;;;5.00;99.90;;;;;;5021418;28;20202;-35
2023/12/07 09:04:08;;;;;;;27.02;16.35;;;5.00;99.90;;;;;;5020853;28;20270;-37
2023/12/07 09:06:36;;;;;;;27.88;16.02;;;4.90;99.90;;;;;;5020961;28;20314;-36
2023/12/07 09:09:04;;;;;;;23.48;15.98;;;4.90;99.90;;;;;;5021326;28;20216;-38
2023/12/07 09:11:30;;;;;;;27.10;17.05;;;4.90;99.90;;;;;;5021125;28;20215;-36
2023/12/07 09:13:57;;;;;;;25.90;17.60;;;4.90;99.90;;;;;;5016232;28;20211;-38
2023/12/07 09:16:23;;;;;;;28.75;18.02;;;4.90;99.90;;;;;;5020664;28;20557;-37
2023/12/07 09:18:49;;;;;;;28.40;18.15;;;4.90;99.90;;;;;;5020443;28;20257;-34
2023/12/07 09:21:15;;;;;;;32.15;19.42;;;4.90;99.90;;;;;;5021481;28;20203;-37
2023/12/07 09:23:41;;;;;;;28.75;18.95;;;4.90;99.90;;;;;;5020813;28;20202;-37
2023/12/07 09:26:07;;;;;;;29.48;18.27;;;4.90;99.90;;;;;;5021169;28;20669;-35
2023/12/07 09:28:33;;;;;;;29.15;18.20;;;4.90;99.90;;;;;;5021049;28;20195;-37
2023/12/07 09:30:59;;;;;;;28.55;18.27;;;4.90;99.90;;;;;;5020580;28;20200;-36
2023/12/07 09:33:25;;;;;;;29.45;17.88;;;4.90;99.90;;;;;;5019812;28;20195;-36
2023/12/07 09:35:51;;;;;;;28.05;18.20;;;4.90;99.90;;;;;;5021196;28;20180;-36
2023/12/07 09:38:17;;;;;;;28.17;18.73;;;4.90;99.90;;;;;;5035808;28;20199;-36
2023/12/07 09:40:45;;;;;;;28.33;18.38;;;4.80;99.90;;;;;;5020350;28;20662;-36
2023/12/07 09:43:12;;;;;;;31.02;19.10;;;4.80;99.90;;;;;;5020815;28;20865;-39
2023/12/07 09:45:38;;;;;;;28.38;18.23;;;4.80;99.90;;;;;;5018336;28;20636;-36
2023/12/07 09:48:04;;;;;;;27.60;19.42;;;4.80;99.90;;;;;;5019570;28;20287;-38
2023/12/07 09:50:31;;;;;;;30.05;20.15;;;4.70;99.90;;;;;;5020854;28;20591;-36
2023/12/07 09:52:58;;;;;;;34.95;20.90;;;4.80;99.90;;;;;;5020813;28;20233;-36
2023/12/07 09:55:27;;;;;;;31.48;19.25;;;4.70;99.90;;;;;;5035066;28;20192;-35
2023/12/07 09:57:56;;;;;;;33.90;21.00;;;4.70;99.90;;;;;;5020587;28;20188;-37
2023/12/07 10:00:22;;;;;;;36.17;21.67;;;4.70;99.90;;;;;;5016284;28;20234;-35
2023/12/07 10:02:50;;;;;;;33.08;20.67;;;4.70;99.90;;;;;;5018575;28;20199;-37
2023/12/07 10:05:19;;;;;;;32.97;21.58;;;4.70;99.90;;;;;;5018207;28;20219;-37
2023/12/07 10:07:49;;;;;;;35.83;21.20;;;4.70;99.90;;;;;;5019083;28;21067;-36
2023/12/07 10:10:17;;;;;;;35.78;21.67;;;4.70;99.90;;;;;;5019833;28;20253;-41
2023/12/07 10:12:57;;;;;;;38.53;23.20;;;4.70;99.90;;;;;;5051161;28;20726;-38
2023/12/07 10:15:23;;;;;;;36.22;23.45;;;4.70;99.90;;;;;;5019938;28;20957;-37
2023/12/07 10:17:59;;;;;;;35.55;22.85;;;4.70;99.90;;;;;;5019389;28;20191;-38
2023/12/07 10:20:28;;;;;;;31.35;20.92;;;4.70;99.90;;;;;;5014787;28;20198;-36
2023/12/07 10:23:03;;;;;;;31.70;22.00;;;4.70;99.90;;;;;;5017012;28;20286;-38
2023/12/07 10:25:36;;;;;;;39.13;22.10;;;4.70;99.90;;;;;;5020551;28;20200;-35
2023/12/07 10:28:11;;;;;;;37.05;24.00;;;4.70;99.90;;;;;;5019361;28;20679;-38
2023/12/07 10:30:41;;;;;;;32.15;21.52;;;4.70;99.90;;;;;;5020067;28;20219;-35
2023/12/07 10:33:07;;;;;;;38.40;21.60;;;4.70;99.90;;;;;;5019647;28;20222;-36
2023/12/07 10:35:42;;;;;;;35.38;21.00;;;4.70;99.90;;;;;;5020971;28;20184;-36
2023/12/07 10:38:09;;;;;;;35.15;22.08;;;4.70;99.90;;;;;;5023643;28;20176;-36
2023/12/07 10:40:35;;;;;;;33.75;22.55;;;4.80;99.90;;;;;;5023758;28;20590;-36
2023/12/07 10:43:05;;;;;;;33.45;21.23;;;4.80;99.90;;;;;;5024193;28;20198;-36
2023/12/07 10:45:31;;;;;;;31.83;21.38;;;4.80;99.90;;;;;;5038582;28;20288;-35
2023/12/07 10:48:04;;;;;;;31.67;20.92;;;4.80;99.90;;;;;;5023172;28;20198;-37
2023/12/07 10:50:34;;;;;;;35.83;20.45;;;4.90;99.90;;;;;;5024159;28;20238;-37
2023/12/07 10:53:09;;;;;;;31.90;21.05;;;4.80;99.90;;;;;;5023961;28;20215;-36
2023/12/07 10:55:44;;;;;;;35.85;20.95;;;4.90;99.90;;;;;;5024010;28;20187;-37
2023/12/07 10:58:13;;;;;;;30.38;19.75;;;4.90;99.90;;;;;;5024282;28;20241;-37
2023/12/07 11:00:46;;;;;;;33.15;20.60;;;4.90;99.90;;;;;;5024734;28;20196;-36
2023/12/07 11:03:16;;;;;;;34.90;19.80;;;4.90;99.90;;;;;;5023041;28;20756;-36
2023/12/07 11:05:44;;;;;;;31.77;19.27;;;5.00;99.90;;;;;;5020773;28;20227;-35
2023/12/07 11:08:13;;;;;;;30.38;19.15;;;4.90;99.90;;;;;;5053639;28;20184;-37
2023/12/07 11:10:59;;;;;;;31.17;18.73;;;5.00;99.90;;;;;;5023086;28;20605;-38
2023/12/07 11:13:29;;;;;;;32.17;19.98;;;5.00;99.90;;;;;;5022052;28;20660;-36
2023/12/07 11:15:56;;;;;;;30.75;19.15;;;5.00;99.90;;;;;;5020284;28;20551;-37
2023/12/07 11:18:26;;;;;;;27.27;17.35;;;5.10;99.90;;;;;;5021417;28;20181;-37
2023/12/07 11:20:53;;;;;;;28.60;19.98;;;5.10;99.90;;;;;;5052298;28;21322;-37
2023/12/07 11:23:19;;;;;;;26.73;18.10;;;5.10;99.90;;;;;;5019761;28;20311;-36
2023/12/07 11:25:46;;;;;;;30.88;19.60;;;5.10;99.90;;;;;;5021659;28;20199;-36
2023/12/07 11:28:13;;;;;;;28.38;15.93;;;5.20;99.90;;;;;;5055787;28;21124;-36
2023/12/07 11:30:46;;;;;;;29.42;16.58;;;5.20;99.90;;;;;;5022842;28;20215;-36
2023/12/07 11:33:14;;;;;;;26.35;16.38;;;5.20;99.90;;;;;;5023639;28;20564;-36
2023/12/07 11:36:15;;;;;;;28.45;16.63;;;5.20;99.90;;;;;;5022293;28;20192;-38
2023/12/07 11:39:11;;;;;;;29.17;16.33;;;5.20;99.90;;;;;;5015071;28;20754;-37
2023/12/07 11:41:58;;;;;;;29.60;17.50;;;5.20;99.90;;;;;;5019484;28;20200;-36
2023/12/07 11:44:34;;;;;;;29.70;18.13;;;5.30;99.90;;;;;;5018936;28;20291;-37
2023/12/07 11:47:00;;;;;;;29.63;17.15;;;5.30;99.90;;;;;;5022421;28;20249;-34
2023/12/07 11:49:27;;;;;;;35.83;18.70;;;5.30;99.90;;;;;;5021224;28;20203;-36
2023/12/07 11:51:53;;;;;;;35.05;17.70;;;5.30;99.90;;;;;;5018430;28;20195;-37
2023/12/07 11:54:19;;;;;;;27.52;17.85;;;5.40;99.90;;;;;;5017852;28;20234;-40
2023/12/07 11:56:45;;;;;;;31.95;17.90;;;5.40;99.90;;;;;;5019584;28;20246;-36
2023/12/07 11:59:10;;;;;;;29.25;17.08;;;5.40;99.90;;;;;;5019942;28;20194;-36
2023/12/07 12:01:36;;;;;;;26.90;18.10;;;5.40;99.90;;;;;;5019365;28;20327;-37
2023/12/07 12:04:04;;;;;;;27.23;18.90;;;5.40;99.90;;;;;;5010135;28;20620;-39
2023/12/07 12:06:30;;;;;;;32.47;17.45;;;5.40;99.90;;;;;;5022044;28;20231;-36
2023/12/07 12:08:56;;;;;;;28.48;18.00;;;5.50;99.90;;;;;;5019144;28;20293;-35
2023/12/07 12:11:22;;;;;;;27.48;17.63;;;5.50;99.90;;;;;;5051322;28;20192;-37
2023/12/07 12:13:49;;;;;;;31.25;17.15;;;5.50;99.90;;;;;;5018963;28;20188;-36
2023/12/07 12:16:16;;;;;;;29.30;18.08;;;5.50;99.90;;;;;;5048860;28;20232;-40
2023/12/07 12:18:42;;;;;;;32.13;18.80;;;5.50;99.90;;;;;;5022144;28;20180;-37
2023/12/07 12:21:11;;;;;;;31.55;18.23;;;5.50;99.90;;;;;;5021704;28;20183;-37
2023/12/07 12:23:39;;;;;;;31.15;19.35;;;5.60;99.90;;;;;;5021535;28;20199;-37
2023/12/07 12:26:07;;;;;;;32.85;19.48;;;5.60;99.90;;;;;;5019972;28;20187;-36
2023/12/07 12:28:35;;;;;;;27.95;18.35;;;5.60;99.90;;;;;;5017149;28;20192;-35
2023/12/07 12:31:01;;;;;;;30.58;18.92;;;5.60;99.90;;;;;;5053423;28;20184;-38
2023/12/07 12:33:27;;;;;;;33.67;22.95;;;5.60;99.90;;;;;;4992747;28;20188;-35
2023/12/07 12:36:06;;;;;;;31.52;19.20;;;5.60;99.90;;;;;;5021904;28;20797;-37
2023/12/07 12:38:33;;;;;;;27.35;18.88;;;5.60;99.90;;;;;;5021804;28;20640;-36